sensor_id;sensor_type;location;lat;lon;timestamp;P1;durP1;ratioP1;P2;durP2;ratioP2
22270;SDS011;11304;53.520;10.104;2022-09-25T00:00:14;40.85;;;27.42;;
22270;SDS011;11304;53.520;10.104;2022-09-25T00:02:40;36.78;;;25.88;;
22270;SDS011;11304;53.520;10.104;2022-09-25T00:05:06;37.97;;;24.98;;
22270;SDS011;11304;53.520;10.104;2022-09-25T00:07:33;34.58;;;25.27;;
22270;SDS011;11304;53.520;10.104;2022-09-25T00:09:59;39.78;;;26.33;;
22270;SDS011;11304;53.520;10.104;2022-09-25T00:12:25;41.80;;;27.27;;
22270;SDS011;11304;53.520;10.104;2022-09-25T00:14:51;42.67;;;30.35;;
22270;SDS011;11304;53.520;10.104;2022-09-25T00:17:17;51.08;;;34.10;;
22270;SDS011;11304;53.520;10.104;2022-09-25T00:19:43;41.53;;;27.85;;
22270;SDS011;11304;53.520;10.104;2022-09-25T00:22:16;42.85;;;31.73;;
22270;SDS011;11304;53.520;10.104;2022-09-25T00:24:42;46.75;;;31.23;;
22270;SDS011;11304;53.520;10.104;2022-09-25T00:27:08;49.13;;;32.17;;
22270;SDS011;11304;53.520;10.104;2022-09-25T00:29:35;44.95;;;30.55;;
22270;SDS011;11304;53.520;10.104;2022-09-25T00:32:02;45.35;;;30.90;;
22270;SDS011;11304;53.520;10.104;2022-09-25T00:34:28;48.08;;;32.45;;
22270;SDS011;11304;53.520;10.104;2022-09-25T00:36:54;44.13;;;31.73;;
22270;SDS011;11304;53.520;10.104;2022-09-25T00:39:21;45.80;;;31.65;;
22270;SDS011;11304;53.520;10.104;2022-09-25T00:41:47;45.25;;;32.33;;
22270;SDS011;11304;53.520;10.104;2022-09-25T00:46:58;41.70;;;29.55;;
22270;SDS011;11304;53.520;10.104;2022-09-25T00:49:24;42.05;;;29.02;;
22270;SDS011;11304;53.520;10.104;2022-09-25T00:51:52;38.47;;;28.17;;
22270;SDS011;11304;53.520;10.104;2022-09-25T00:54:20;42.50;;;29.87;;
22270;SDS011;11304;53.520;10.104;2022-09-25T00:56:47;46.22;;;33.88;;
22270;SDS011;11304;53.520;10.104;2022-09-25T00:59:16;47.23;;;33.50;;
22270;SDS011;11304;53.520;10.104;2022-09-25T01:01:43;47.05;;;32.85;;
22270;SDS011;11304;53.520;10.104;2022-09-25T01:04:09;49.22;;;33.55;;
22270;SDS011;11304;53.520;10.104;2022-09-25T01:06:36;50.38;;;32.72;;
22270;SDS011;11304;53.520;10.104;2022-09-25T01:09:03;48.33;;;32.88;;
22270;SDS011;11304;53.520;10.104;2022-09-25T01:11:29;48.55;;;32.08;;
22270;SDS011;11304;53.520;10.104;2022-09-25T01:13:56;46.40;;;32.45;;
22270;SDS011;11304;53.520;10.104;2022-09-25T01:21:38;52.70;;;31.63;;
22270;SDS011;11304;53.520;10.104;2022-09-25T01:31:51;47.28;;;31.63;;
22270;SDS011;11304;53.520;10.104;2022-09-25T01:36:49;52.38;;;35.90;;
22270;SDS011;11304;53.520;10.104;2022-09-25T01:44:20;53.45;;;35.80;;
22270;SDS011;11304;53.520;10.104;2022-09-25T01:46:49;59.20;;;38.83;;
22270;SDS011;11304;53.520;10.104;2022-09-25T01:49:21;57.80;;;38.92;;
22270;SDS011;11304;53.520;10.104;2022-09-25T01:51:52;50.42;;;35.90;;
22270;SDS011;11304;53.520;10.104;2022-09-25T01:54:29;58.15;;;37.50;;
22270;SDS011;11304;53.520;10.104;2022-09-25T01:56:58;60.65;;;39.08;;
22270;SDS011;11304;53.520;10.104;2022-09-25T01:59:30;57.13;;;37.45;;
22270;SDS011;11304;53.520;10.104;2022-09-25T02:01:58;61.15;;;38.13;;
22270;SDS011;11304;53.520;10.104;2022-09-25T02:04:36;55.97;;;37.72;;
22270;SDS011;11304;53.520;10.104;2022-09-25T02:07:05;55.72;;;36.17;;
22270;SDS011;11304;53.520;10.104;2022-09-25T02:09:36;50.80;;;32.30;;
22270;SDS011;11304;53.520;10.104;2022-09-25T02:12:06;51.13;;;33.00;;
22270;SDS011;11304;53.520;10.104;2022-09-25T02:14:36;55.25;;;34.10;;
22270;SDS011;11304;53.520;10.104;2022-09-25T02:17:04;51.88;;;33.25;;
22270;SDS011;11304;53.520;10.104;2022-09-25T02:19:31;58.85;;;37.88;;
22270;SDS011;11304;53.520;10.104;2022-09-25T02:22:36;54.00;;;33.15;;
22270;SDS011;11304;53.520;10.104;2022-09-25T02:27:31;53.08;;;33.38;;
22270;SDS011;11304;53.520;10.104;2022-09-25T02:29:58;53.75;;;33.45;;
22270;SDS011;11304;53.520;10.104;2022-09-25T02:32:27;50.92;;;32.30;;
22270;SDS011;11304;53.520;10.104;2022-09-25T02:37:20;58.28;;;33.95;;
22270;SDS011;11304;53.520;10.104;2022-09-25T02:39:47;53.20;;;32.28;;
22270;SDS011;11304;53.520;10.104;2022-09-25T02:45:02;51.20;;;30.40;;
22270;SDS011;11304;53.520;10.104;2022-09-25T02:55:19;43.78;;;28.08;;
22270;SDS011;11304;53.520;10.104;2022-09-25T02:57:56;53.13;;;32.38;;
22270;SDS011;11304;53.520;10.104;2022-09-25T03:00:23;42.90;;;27.92;;
22270;SDS011;11304;53.520;10.104;2022-09-25T03:02:53;52.28;;;31.75;;
22270;SDS011;11304;53.520;10.104;2022-09-25T03:05:21;48.08;;;29.13;;
22270;SDS011;11304;53.520;10.104;2022-09-25T03:07:49;52.25;;;32.55;;
22270;SDS011;11304;53.520;10.104;2022-09-25T03:10:34;50.38;;;31.48;;
22270;SDS011;11304;53.520;10.104;2022-09-25T03:15:49;47.25;;;30.40;;
22270;SDS011;11304;53.520;10.104;2022-09-25T03:18:16;54.40;;;30.27;;
22270;SDS011;11304;53.520;10.104;2022-09-25T03:20:43;49.10;;;28.60;;
22270;SDS011;11304;53.520;10.104;2022-09-25T03:23:09;54.88;;;29.42;;
22270;SDS011;11304;53.520;10.104;2022-09-25T03:25:36;49.10;;;29.27;;
22270;SDS011;11304;53.520;10.104;2022-09-25T03:28:02;40.50;;;26.15;;
22270;SDS011;11304;53.520;10.104;2022-09-25T03:30:29;44.92;;;27.23;;
22270;SDS011;11304;53.520;10.104;2022-09-25T03:32:55;50.75;;;28.63;;
22270;SDS011;11304;53.520;10.104;2022-09-25T03:35:21;52.95;;;29.88;;
22270;SDS011;11304;53.520;10.104;2022-09-25T03:37:47;46.35;;;27.17;;
22270;SDS011;11304;53.520;10.104;2022-09-25T03:40:13;47.13;;;27.48;;
22270;SDS011;11304;53.520;10.104;2022-09-25T03:42:40;47.90;;;28.75;;
22270;SDS011;11304;53.520;10.104;2022-09-25T03:45:07;50.65;;;28.95;;
22270;SDS011;11304;53.520;10.104;2022-09-25T03:47:34;52.25;;;30.80;;
22270;SDS011;11304;53.520;10.104;2022-09-25T03:50:00;58.72;;;33.33;;
22270;SDS011;11304;53.520;10.104;2022-09-25T03:52:26;54.10;;;31.48;;
22270;SDS011;11304;53.520;10.104;2022-09-25T03:54:52;52.20;;;31.02;;
22270;SDS011;11304;53.520;10.104;2022-09-25T03:57:18;49.80;;;31.23;;
22270;SDS011;11304;53.520;10.104;2022-09-25T03:59:44;50.03;;;30.80;;
22270;SDS011;11304;53.520;10.104;2022-09-25T04:02:10;54.42;;;31.52;;
22270;SDS011;11304;53.520;10.104;2022-09-25T04:04:37;49.70;;;30.02;;
22270;SDS011;11304;53.520;10.104;2022-09-25T04:07:03;45.70;;;28.80;;
22270;SDS011;11304;53.520;10.104;2022-09-25T04:09:30;49.35;;;29.88;;
22270;SDS011;11304;53.520;10.104;2022-09-25T04:11:56;43.38;;;27.77;;
22270;SDS011;11304;53.520;10.104;2022-09-25T04:14:22;42.53;;;28.20;;
22270;SDS011;11304;53.520;10.104;2022-09-25T04:16:48;39.53;;;26.02;;
22270;SDS011;11304;53.520;10.104;2022-09-25T04:19:15;46.25;;;29.60;;
22270;SDS011;11304;53.520;10.104;2022-09-25T04:21:41;42.17;;;27.23;;
22270;SDS011;11304;53.520;10.104;2022-09-25T04:24:07;39.28;;;26.50;;
22270;SDS011;11304;53.520;10.104;2022-09-25T04:26:52;37.47;;;25.40;;
22270;SDS011;11304;53.520;10.104;2022-09-25T04:29:18;47.45;;;30.50;;
22270;SDS011;11304;53.520;10.104;2022-09-25T04:31:47;44.35;;;28.10;;
22270;SDS011;11304;53.520;10.104;2022-09-25T04:34:33;39.67;;;26.23;;
22270;SDS011;11304;53.520;10.104;2022-09-25T04:36:59;49.83;;;30.60;;
22270;SDS011;11304;53.520;10.104;2022-09-25T04:39:25;44.85;;;29.30;;
22270;SDS011;11304;53.520;10.104;2022-09-25T04:41:51;44.50;;;29.27;;
22270;SDS011;11304;53.520;10.104;2022-09-25T04:44:17;45.35;;;28.67;;
22270;SDS011;11304;53.520;10.104;2022-09-25T04:46:44;41.08;;;27.83;;
22270;SDS011;11304;53.520;10.104;2022-09-25T04:49:10;47.50;;;30.15;;
22270;SDS011;11304;53.520;10.104;2022-09-25T04:54:03;52.58;;;31.25;;
22270;SDS011;11304;53.520;10.104;2022-09-25T04:56:30;50.60;;;32.13;;
22270;SDS011;11304;53.520;10.104;2022-09-25T04:58:56;48.67;;;30.55;;
22270;SDS011;11304;53.520;10.104;2022-09-25T05:01:22;48.22;;;31.30;;
22270;SDS011;11304;53.520;10.104;2022-09-25T05:03:48;54.22;;;32.60;;
22270;SDS011;11304;53.520;10.104;2022-09-25T05:08:43;54.22;;;32.67;;
22270;SDS011;11304;53.520;10.104;2022-09-25T05:11:09;50.13;;;31.92;;
22270;SDS011;11304;53.520;10.104;2022-09-25T05:13:35;47.38;;;29.63;;
22270;SDS011;11304;53.520;10.104;2022-09-25T05:16:01;54.20;;;31.10;;
22270;SDS011;11304;53.520;10.104;2022-09-25T05:18:27;51.50;;;30.00;;
22270;SDS011;11304;53.520;10.104;2022-09-25T05:20:53;53.47;;;33.42;;
22270;SDS011;11304;53.520;10.104;2022-09-25T05:23:20;47.33;;;31.08;;
22270;SDS011;11304;53.520;10.104;2022-09-25T05:25:53;45.28;;;29.60;;
22270;SDS011;11304;53.520;10.104;2022-09-25T05:28:22;51.80;;;32.30;;
22270;SDS011;11304;53.520;10.104;2022-09-25T05:30:48;54.55;;;32.92;;
22270;SDS011;11304;53.520;10.104;2022-09-25T05:33:15;51.35;;;32.42;;
22270;SDS011;11304;53.520;10.104;2022-09-25T05:35:43;49.78;;;29.92;;
22270;SDS011;11304;53.520;10.104;2022-09-25T05:38:09;42.80;;;28.05;;
22270;SDS011;11304;53.520;10.104;2022-09-25T05:40:36;41.97;;;27.75;;
22270;SDS011;11304;53.520;10.104;2022-09-25T05:43:03;41.38;;;27.25;;
22270;SDS011;11304;53.520;10.104;2022-09-25T05:45:30;35.10;;;24.10;;
22270;SDS011;11304;53.520;10.104;2022-09-25T05:48:04;42.58;;;27.50;;
22270;SDS011;11304;53.520;10.104;2022-09-25T05:50:30;40.67;;;25.48;;
22270;SDS011;11304;53.520;10.104;2022-09-25T05:53:00;38.35;;;25.90;;
22270;SDS011;11304;53.520;10.104;2022-09-25T05:55:26;33.35;;;22.95;;
22270;SDS011;11304;53.520;10.104;2022-09-25T05:57:53;41.42;;;26.60;;
22270;SDS011;11304;53.520;10.104;2022-09-25T06:00:19;37.63;;;25.65;;
22270;SDS011;11304;53.520;10.104;2022-09-25T06:02:49;35.20;;;25.25;;
22270;SDS011;11304;53.520;10.104;2022-09-25T06:05:15;38.50;;;26.02;;
22270;SDS011;11304;53.520;10.104;2022-09-25T06:07:42;36.08;;;26.45;;
22270;SDS011;11304;53.520;10.104;2022-09-25T06:10:08;32.40;;;22.52;;
22270;SDS011;11304;53.520;10.104;2022-09-25T06:12:34;34.35;;;23.83;;
22270;SDS011;11304;53.520;10.104;2022-09-25T06:15:01;34.40;;;23.08;;
22270;SDS011;11304;53.520;10.104;2022-09-25T06:17:27;39.10;;;26.05;;
22270;SDS011;11304;53.520;10.104;2022-09-25T06:19:53;32.17;;;22.25;;
22270;SDS011;11304;53.520;10.104;2022-09-25T06:22:19;36.22;;;25.05;;
22270;SDS011;11304;53.520;10.104;2022-09-25T06:24:45;35.50;;;24.73;;
22270;SDS011;11304;53.520;10.104;2022-09-25T06:27:12;32.13;;;24.52;;
22270;SDS011;11304;53.520;10.104;2022-09-25T06:29:38;32.17;;;23.48;;
22270;SDS011;11304;53.520;10.104;2022-09-25T06:32:04;35.08;;;24.48;;
22270;SDS011;11304;53.520;10.104;2022-09-25T06:34:31;31.70;;;22.98;;
22270;SDS011;11304;53.520;10.104;2022-09-25T06:36:58;33.20;;;22.00;;
22270;SDS011;11304;53.520;10.104;2022-09-25T06:39:25;29.60;;;23.00;;
22270;SDS011;11304;53.520;10.104;2022-09-25T06:41:51;36.95;;;26.70;;
22270;SDS011;11304;53.520;10.104;2022-09-25T06:44:18;33.80;;;24.35;;
22270;SDS011;11304;53.520;10.104;2022-09-25T06:46:47;32.95;;;24.17;;
22270;SDS011;11304;53.520;10.104;2022-09-25T06:51:39;37.78;;;25.77;;
22270;SDS011;11304;53.520;10.104;2022-09-25T06:54:05;33.72;;;23.65;;
22270;SDS011;11304;53.520;10.104;2022-09-25T06:56:32;35.63;;;25.13;;
22270;SDS011;11304;53.520;10.104;2022-09-25T06:58:58;36.17;;;25.75;;
22270;SDS011;11304;53.520;10.104;2022-09-25T07:01:24;36.63;;;25.73;;
22270;SDS011;11304;53.520;10.104;2022-09-25T07:03:50;35.33;;;25.05;;
22270;SDS011;11304;53.520;10.104;2022-09-25T07:06:17;31.00;;;22.65;;
22270;SDS011;11304;53.520;10.104;2022-09-25T07:08:44;39.97;;;27.00;;
22270;SDS011;11304;53.520;10.104;2022-09-25T07:11:21;39.10;;;26.50;;
22270;SDS011;11304;53.520;10.104;2022-09-25T07:13:48;41.70;;;27.38;;
22270;SDS011;11304;53.520;10.104;2022-09-25T07:16:17;36.35;;;25.42;;
22270;SDS011;11304;53.520;10.104;2022-09-25T07:18:43;42.50;;;28.13;;
22270;SDS011;11304;53.520;10.104;2022-09-25T07:21:11;45.75;;;27.88;;
22270;SDS011;11304;53.520;10.104;2022-09-25T07:23:38;41.92;;;26.73;;
22270;SDS011;11304;53.520;10.104;2022-09-25T07:26:06;37.25;;;24.90;;
22270;SDS011;11304;53.520;10.104;2022-09-25T07:28:34;36.97;;;25.65;;
22270;SDS011;11304;53.520;10.104;2022-09-25T07:31:11;38.10;;;26.17;;
22270;SDS011;11304;53.520;10.104;2022-09-25T07:33:37;37.50;;;24.73;;
22270;SDS011;11304;53.520;10.104;2022-09-25T07:36:03;40.17;;;26.25;;
22270;SDS011;11304;53.520;10.104;2022-09-25T07:38:29;32.70;;;23.17;;
22270;SDS011;11304;53.520;10.104;2022-09-25T07:40:55;39.15;;;26.50;;
22270;SDS011;11304;53.520;10.104;2022-09-25T07:43:21;40.65;;;26.50;;
22270;SDS011;11304;53.520;10.104;2022-09-25T07:45:48;37.03;;;24.33;;
22270;SDS011;11304;53.520;10.104;2022-09-25T07:48:17;35.22;;;23.27;;
22270;SDS011;11304;53.520;10.104;2022-09-25T07:50:45;37.10;;;25.42;;
22270;SDS011;11304;53.520;10.104;2022-09-25T07:53:13;36.70;;;24.50;;
22270;SDS011;11304;53.520;10.104;2022-09-25T07:55:39;33.85;;;23.08;;
22270;SDS011;11304;53.520;10.104;2022-09-25T07:58:05;36.50;;;24.77;;
22270;SDS011;11304;53.520;10.104;2022-09-25T08:00:31;35.58;;;24.08;;
22270;SDS011;11304;53.520;10.104;2022-09-25T08:02:58;34.20;;;23.52;;
22270;SDS011;11304;53.520;10.104;2022-09-25T08:05:25;33.75;;;23.88;;
22270;SDS011;11304;53.520;10.104;2022-09-25T08:07:51;35.38;;;24.73;;
22270;SDS011;11304;53.520;10.104;2022-09-25T08:10:18;36.63;;;26.00;;
22270;SDS011;11304;53.520;10.104;2022-09-25T08:12:44;35.50;;;25.00;;
22270;SDS011;11304;53.520;10.104;2022-09-25T08:15:10;34.00;;;25.23;;
22270;SDS011;11304;53.520;10.104;2022-09-25T08:17:38;33.80;;;24.10;;
22270;SDS011;11304;53.520;10.104;2022-09-25T08:20:04;31.67;;;24.17;;
22270;SDS011;11304;53.520;10.104;2022-09-25T08:22:31;34.53;;;24.23;;
22270;SDS011;11304;53.520;10.104;2022-09-25T08:24:57;31.92;;;23.10;;
22270;SDS011;11304;53.520;10.104;2022-09-25T08:27:27;23.90;;;18.65;;
22270;SDS011;11304;53.520;10.104;2022-09-25T08:29:53;27.40;;;19.70;;
22270;SDS011;11304;53.520;10.104;2022-09-25T08:32:19;29.10;;;20.52;;
22270;SDS011;11304;53.520;10.104;2022-09-25T08:34:45;28.00;;;19.70;;
22270;SDS011;11304;53.520;10.104;2022-09-25T08:37:13;25.83;;;19.67;;
22270;SDS011;11304;53.520;10.104;2022-09-25T08:39:40;23.42;;;18.50;;
22270;SDS011;11304;53.520;10.104;2022-09-25T08:42:08;22.35;;;17.30;;
22270;SDS011;11304;53.520;10.104;2022-09-25T08:44:42;23.20;;;18.40;;
22270;SDS011;11304;53.520;10.104;2022-09-25T08:47:10;21.30;;;16.83;;
22270;SDS011;11304;53.520;10.104;2022-09-25T08:50:10;24.52;;;18.15;;
22270;SDS011;11304;53.520;10.104;2022-09-25T08:52:38;25.42;;;19.90;;
22270;SDS011;11304;53.520;10.104;2022-09-25T08:57:34;8.98;;;7.32;;
22270;SDS011;11304;53.520;10.104;2022-09-25T09:00:35;8.93;;;5.95;;
22270;SDS011;11304;53.520;10.104;2022-09-25T09:02:56;6.28;;;5.10;;
22270;SDS011;11304;53.520;10.104;2022-09-25T09:05:23;5.68;;;4.93;;
22270;SDS011;11304;53.520;10.104;2022-09-25T09:08:01;6.28;;;5.68;;
22270;SDS011;11304;53.520;10.104;2022-09-25T09:10:41;6.30;;;5.32;;
22270;SDS011;11304;53.520;10.104;2022-09-25T09:16:18;7.70;;;6.45;;
22270;SDS011;11304;53.520;10.104;2022-09-25T09:18:25;6.80;;;6.10;;
22270;SDS011;11304;53.520;10.104;2022-09-25T09:20:52;6.90;;;6.20;;
22270;SDS011;11304;53.520;10.104;2022-09-25T09:23:20;8.32;;;7.03;;
22270;SDS011;11304;53.520;10.104;2022-09-25T09:28:20;9.13;;;8.20;;
22270;SDS011;11304;53.520;10.104;2022-09-25T09:35:53;9.93;;;8.70;;
22270;SDS011;11304;53.520;10.104;2022-09-25T09:51:23;7.03;;;6.32;;
22270;SDS011;11304;53.520;10.104;2022-09-25T09:53:52;5.57;;;5.07;;
22270;SDS011;11304;53.520;10.104;2022-09-25T09:56:24;6.07;;;5.30;;
22270;SDS011;11304;53.520;10.104;2022-09-25T09:58:52;6.38;;;5.60;;
22270;SDS011;11304;53.520;10.104;2022-09-25T10:01:21;8.00;;;6.28;;
22270;SDS011;11304;53.520;10.104;2022-09-25T10:03:49;8.65;;;6.30;;
22270;SDS011;11304;53.520;10.104;2022-09-25T10:06:27;7.70;;;6.63;;
22270;SDS011;11304;53.520;10.104;2022-09-25T10:08:55;8.40;;;6.73;;
22270;SDS011;11304;53.520;10.104;2022-09-25T10:11:21;8.18;;;7.28;;
22270;SDS011;11304;53.520;10.104;2022-09-25T10:13:48;8.82;;;7.90;;
22270;SDS011;11304;53.520;10.104;2022-09-25T10:16:21;8.75;;;7.80;;
22270;SDS011;11304;53.520;10.104;2022-09-25T10:19:02;9.07;;;8.18;;
22270;SDS011;11304;53.520;10.104;2022-09-25T10:21:40;11.23;;;9.35;;
22270;SDS011;11304;53.520;10.104;2022-09-25T10:24:07;9.93;;;8.93;;
22270;SDS011;11304;53.520;10.104;2022-09-25T10:26:35;10.60;;;9.55;;
22270;SDS011;11304;53.520;10.104;2022-09-25T10:29:24;10.63;;;9.50;;
22270;SDS011;11304;53.520;10.104;2022-09-25T10:31:50;10.45;;;9.32;;
22270;SDS011;11304;53.520;10.104;2022-09-25T10:34:21;12.68;;;10.63;;
22270;SDS011;11304;53.520;10.104;2022-09-25T10:36:49;11.75;;;10.35;;
22270;SDS011;11304;53.520;10.104;2022-09-25T10:39:34;11.27;;;9.77;;
22270;SDS011;11304;53.520;10.104;2022-09-25T10:42:04;11.32;;;10.10;;
22270;SDS011;11304;53.520;10.104;2022-09-25T10:44:38;15.05;;;10.40;;
22270;SDS011;11304;53.520;10.104;2022-09-25T10:52:52;10.65;;;6.65;;
22270;SDS011;11304;53.520;10.104;2022-09-25T10:55:24;10.85;;;6.40;;
22270;SDS011;11304;53.520;10.104;2022-09-25T10:58:13;13.93;;;7.18;;
22270;SDS011;11304;53.520;10.104;2022-09-25T11:03:15;10.82;;;7.18;;
22270;SDS011;11304;53.520;10.104;2022-09-25T11:05:49;10.90;;;7.43;;
22270;SDS011;11304;53.520;10.104;2022-09-25T11:08:16;11.95;;;7.93;;
22270;SDS011;11304;53.520;10.104;2022-09-25T11:11:19;11.63;;;8.40;;
22270;SDS011;11304;53.520;10.104;2022-09-25T11:13:45;13.18;;;8.65;;
22270;SDS011;11304;53.520;10.104;2022-09-25T11:16:12;10.95;;;7.55;;
22270;SDS011;11304;53.520;10.104;2022-09-25T11:18:45;11.30;;;8.30;;
22270;SDS011;11304;53.520;10.104;2022-09-25T11:21:29;11.05;;;8.82;;
22270;SDS011;11304;53.520;10.104;2022-09-25T11:23:58;12.38;;;8.60;;
22270;SDS011;11304;53.520;10.104;2022-09-25T11:26:30;13.32;;;9.27;;
22270;SDS011;11304;53.520;10.104;2022-09-25T11:31:37;10.60;;;7.40;;
22270;SDS011;11304;53.520;10.104;2022-09-25T11:34:14;12.50;;;8.45;;
22270;SDS011;11304;53.520;10.104;2022-09-25T11:39:31;12.40;;;7.07;;
22270;SDS011;11304;53.520;10.104;2022-09-25T11:45:23;11.35;;;6.30;;
22270;SDS011;11304;53.520;10.104;2022-09-25T11:47:53;10.80;;;6.13;;
22270;SDS011;11304;53.520;10.104;2022-09-25T11:50:23;10.73;;;6.00;;
22270;SDS011;11304;53.520;10.104;2022-09-25T11:55:34;11.32;;;5.82;;
22270;SDS011;11304;53.520;10.104;2022-09-25T11:58:12;12.95;;;6.68;;
22270;SDS011;11304;53.520;10.104;2022-09-25T12:03:19;10.70;;;6.60;;
22270;SDS011;11304;53.520;10.104;2022-09-25T12:11:07;7.55;;;4.25;;
22270;SDS011;11304;53.520;10.104;2022-09-25T12:13:40;10.32;;;4.30;;
22270;SDS011;11304;53.520;10.104;2022-09-25T12:16:20;6.43;;;3.83;;
22270;SDS011;11304;53.520;10.104;2022-09-25T12:23:46;7.18;;;3.78;;
22270;SDS011;11304;53.520;10.104;2022-09-25T12:26:23;5.65;;;3.60;;
22270;SDS011;11304;53.520;10.104;2022-09-25T12:36:35;10.00;;;4.47;;
22270;SDS011;11304;53.520;10.104;2022-09-25T12:39:15;8.20;;;3.85;;
22270;SDS011;11304;53.520;10.104;2022-09-25T12:41:54;10.00;;;4.38;;
22270;SDS011;11304;53.520;10.104;2022-09-25T12:47:02;9.10;;;4.03;;
22270;SDS011;11304;53.520;10.104;2022-09-25T12:52:09;7.38;;;4.00;;
22270;SDS011;11304;53.520;10.104;2022-09-25T12:57:08;9.57;;;4.22;;
22270;SDS011;11304;53.520;10.104;2022-09-25T12:59:38;7.70;;;4.50;;
22270;SDS011;11304;53.520;10.104;2022-09-25T13:08:02;9.10;;;4.97;;
22270;SDS011;11304;53.520;10.104;2022-09-25T13:13:03;8.82;;;4.95;;
22270;SDS011;11304;53.520;10.104;2022-09-25T13:15:31;8.80;;;4.43;;
22270;SDS011;11304;53.520;10.104;2022-09-25T13:17:57;9.75;;;5.03;;
22270;SDS011;11304;53.520;10.104;2022-09-25T13:25:29;6.22;;;3.08;;
22270;SDS011;11304;53.520;10.104;2022-09-25T13:27:56;6.95;;;3.67;;
22270;SDS011;11304;53.520;10.104;2022-09-25T13:30:29;7.78;;;3.30;;
22270;SDS011;11304;53.520;10.104;2022-09-25T13:32:57;10.00;;;7.53;;
22270;SDS011;11304;53.520;10.104;2022-09-25T13:35:27;6.88;;;4.63;;
22270;SDS011;11304;53.520;10.104;2022-09-25T13:37:54;5.32;;;3.80;;
22270;SDS011;11304;53.520;10.104;2022-09-25T13:40:25;6.68;;;3.22;;
22270;SDS011;11304;53.520;10.104;2022-09-25T13:43:19;5.88;;;3.17;;
22270;SDS011;11304;53.520;10.104;2022-09-25T13:45:48;5.38;;;2.47;;
22270;SDS011;11304;53.520;10.104;2022-09-25T13:48:34;6.32;;;2.85;;
22270;SDS011;11304;53.520;10.104;2022-09-25T13:53:51;4.00;;;2.50;;
22270;SDS011;11304;53.520;10.104;2022-09-25T13:56:21;7.70;;;3.10;;
22270;SDS011;11304;53.520;10.104;2022-09-25T13:58:57;7.55;;;3.08;;
22270;SDS011;11304;53.520;10.104;2022-09-25T14:01:32;6.25;;;2.80;;
22270;SDS011;11304;53.520;10.104;2022-09-25T14:03:58;8.05;;;2.70;;
22270;SDS011;11304;53.520;10.104;2022-09-25T14:06:26;8.55;;;2.95;;
22270;SDS011;11304;53.520;10.104;2022-09-25T14:08:57;8.10;;;2.25;;
22270;SDS011;11304;53.520;10.104;2022-09-25T14:11:25;7.43;;;2.33;;
22270;SDS011;11304;53.520;10.104;2022-09-25T14:13:52;6.72;;;2.42;;
22270;SDS011;11304;53.520;10.104;2022-09-25T14:16:30;11.23;;;3.45;;
22270;SDS011;11304;53.520;10.104;2022-09-25T14:18:59;4.97;;;2.28;;
22270;SDS011;11304;53.520;10.104;2022-09-25T14:21:26;7.57;;;2.37;;
22270;SDS011;11304;53.520;10.104;2022-09-25T14:23:54;6.00;;;1.80;;
22270;SDS011;11304;53.520;10.104;2022-09-25T14:26:24;4.53;;;1.85;;
22270;SDS011;11304;53.520;10.104;2022-09-25T14:28:52;3.92;;;1.80;;
22270;SDS011;11304;53.520;10.104;2022-09-25T14:39:26;7.40;;;2.28;;
22270;SDS011;11304;53.520;10.104;2022-09-25T14:41:52;8.63;;;2.20;;
22270;SDS011;11304;53.520;10.104;2022-09-25T14:47:07;7.05;;;2.40;;
22270;SDS011;11304;53.520;10.104;2022-09-25T14:49:37;7.60;;;2.17;;
22270;SDS011;11304;53.520;10.104;2022-09-25T14:52:05;9.13;;;2.60;;
22270;SDS011;11304;53.520;10.104;2022-09-25T14:54:33;6.20;;;2.00;;
22270;SDS011;11304;53.520;10.104;2022-09-25T14:57:02;5.00;;;1.80;;
22270;SDS011;11304;53.520;10.104;2022-09-25T15:02:04;6.65;;;2.25;;
22270;SDS011;11304;53.520;10.104;2022-09-25T15:04:35;8.77;;;2.30;;
22270;SDS011;11304;53.520;10.104;2022-09-25T15:07:02;5.88;;;1.55;;
22270;SDS011;11304;53.520;10.104;2022-09-25T15:09:38;10.10;;;1.80;;
22270;SDS011;11304;53.520;10.104;2022-09-25T15:17:29;4.65;;;1.48;;
22270;SDS011;11304;53.520;10.104;2022-09-25T15:19:56;7.22;;;1.48;;
22270;SDS011;11304;53.520;10.104;2022-09-25T15:22:31;6.90;;;1.70;;
22270;SDS011;11304;53.520;10.104;2022-09-25T15:24:59;7.03;;;1.83;;
22270;SDS011;11304;53.520;10.104;2022-09-25T15:27:25;6.25;;;1.65;;
22270;SDS011;11304;53.520;10.104;2022-09-25T15:29:52;6.43;;;1.50;;
22270;SDS011;11304;53.520;10.104;2022-09-25T15:32:21;4.85;;;1.80;;
22270;SDS011;11304;53.520;10.104;2022-09-25T15:34:47;8.45;;;1.45;;
22270;SDS011;11304;53.520;10.104;2022-09-25T15:37:35;7.95;;;1.48;;
22270;SDS011;11304;53.520;10.104;2022-09-25T15:40:34;9.13;;;1.52;;
22270;SDS011;11304;53.520;10.104;2022-09-25T15:42:53;5.97;;;1.25;;
22270;SDS011;11304;53.520;10.104;2022-09-25T15:47:58;8.20;;;1.60;;
22270;SDS011;11304;53.520;10.104;2022-09-25T15:50:25;6.13;;;1.50;;
22270;SDS011;11304;53.520;10.104;2022-09-25T15:52:53;6.28;;;1.40;;
22270;SDS011;11304;53.520;10.104;2022-09-25T15:55:20;7.18;;;1.50;;
22270;SDS011;11304;53.520;10.104;2022-09-25T15:57:48;9.73;;;1.25;;
22270;SDS011;11304;53.520;10.104;2022-09-25T16:00:18;2.88;;;0.88;;
22270;SDS011;11304;53.520;10.104;2022-09-25T16:03:20;5.20;;;1.38;;
22270;SDS011;11304;53.520;10.104;2022-09-25T16:06:06;7.00;;;1.70;;
22270;SDS011;11304;53.520;10.104;2022-09-25T16:08:37;6.05;;;1.02;;
22270;SDS011;11304;53.520;10.104;2022-09-25T16:11:05;6.20;;;0.95;;
22270;SDS011;11304;53.520;10.104;2022-09-25T16:13:40;5.82;;;1.65;;
22270;SDS011;11304;53.520;10.104;2022-09-25T16:16:26;4.32;;;1.25;;
22270;SDS011;11304;53.520;10.104;2022-09-25T16:18:54;9.32;;;1.30;;
22270;SDS011;11304;53.520;10.104;2022-09-25T16:23:51;4.60;;;0.90;;
22270;SDS011;11304;53.520;10.104;2022-09-25T16:26:19;5.75;;;1.00;;
22270;SDS011;11304;53.520;10.104;2022-09-25T16:29:00;7.03;;;1.35;;
22270;SDS011;11304;53.520;10.104;2022-09-25T16:31:27;5.10;;;1.10;;
22270;SDS011;11304;53.520;10.104;2022-09-25T16:33:53;4.45;;;1.27;;
22270;SDS011;11304;53.520;10.104;2022-09-25T16:36:21;7.38;;;1.33;;
22270;SDS011;11304;53.520;10.104;2022-09-25T16:41:49;5.07;;;1.45;;
22270;SDS011;11304;53.520;10.104;2022-09-25T16:44:20;6.35;;;1.42;;
22270;SDS011;11304;53.520;10.104;2022-09-25T16:49:16;6.85;;;1.10;;
22270;SDS011;11304;53.520;10.104;2022-09-25T16:51:44;5.47;;;1.10;;
22270;SDS011;11304;53.520;10.104;2022-09-25T16:54:14;7.75;;;1.45;;
22270;SDS011;11304;53.520;10.104;2022-09-25T16:56:40;6.60;;;1.13;;
22270;SDS011;11304;53.520;10.104;2022-09-25T16:59:17;3.55;;;1.00;;
22270;SDS011;11304;53.520;10.104;2022-09-25T17:01:44;9.02;;;1.50;;
22270;SDS011;11304;53.520;10.104;2022-09-25T17:04:11;6.10;;;1.42;;
22270;SDS011;11304;53.520;10.104;2022-09-25T17:06:39;7.40;;;1.45;;
22270;SDS011;11304;53.520;10.104;2022-09-25T17:09:12;4.53;;;1.00;;
22270;SDS011;11304;53.520;10.104;2022-09-25T17:11:39;4.15;;;1.20;;
22270;SDS011;11304;53.520;10.104;2022-09-25T17:14:06;4.57;;;1.15;;
22270;SDS011;11304;53.520;10.104;2022-09-25T17:16:33;4.00;;;1.27;;
22270;SDS011;11304;53.520;10.104;2022-09-25T17:18:59;7.07;;;1.70;;